createdAt,value
2019-05-30T00:00:17.849Z,1016.34
2019-05-30T00:01:15.976Z,1016.33
2019-05-30T00:02:16.027Z,1016.34
2019-05-30T00:03:15.978Z,1016.32
2019-05-30T00:04:15.947Z,1016.33
2019-05-30T00:05:15.953Z,1016.33
2019-05-30T00:06:15.952Z,1016.32
2019-05-30T00:07:15.931Z,1016.28
2019-05-30T00:08:15.930Z,1016.32
2019-05-30T00:09:15.927Z,1016.32
2019-05-30T00:10:15.940Z,1016.27
2019-05-30T00:11:15.904Z,1016.25
2019-05-30T00:12:15.908Z,1016.25
2019-05-30T00:13:15.899Z,1016.23
2019-05-30T00:14:15.892Z,1016.24
2019-05-30T00:15:15.889Z,1016.25
2019-05-30T00:16:15.884Z,1016.26
2019-05-30T00:17:15.871Z,1016.26
2019-05-30T00:18:15.874Z,1016.30
2019-05-30T00:19:15.855Z,1016.31
2019-05-30T00:20:15.860Z,1016.26
2019-05-30T00:21:15.849Z,1016.26
2019-05-30T00:22:15.845Z,1016.25
2019-05-30T00:23:15.847Z,1016.27
2019-05-30T00:24:15.823Z,1016.25
2019-05-30T00:25:15.822Z,1016.31
2019-05-30T00:26:15.833Z,1016.32
2019-05-30T00:27:15.809Z,1016.33
2019-05-30T00:28:15.805Z,1016.32
2019-05-30T00:29:15.791Z,1016.31
2019-05-30T00:30:24.435Z,1016.28
2019-05-30T00:31:15.776Z,1016.32
2019-05-30T00:32:15.785Z,1016.29
2019-05-30T00:33:15.766Z,1016.31
2019-05-30T00:34:15.774Z,1016.28
2019-05-30T00:35:15.763Z,1016.27
2019-05-30T00:36:15.759Z,1016.27
2019-05-30T00:37:15.745Z,1016.29
2019-05-30T00:38:15.735Z,1016.29
2019-05-30T00:39:15.743Z,1016.32
2019-05-30T00:40:15.725Z,1016.30
2019-05-30T00:41:15.712Z,1016.27
2019-05-30T00:42:15.720Z,1016.27
2019-05-30T00:43:15.715Z,1016.27
2019-05-30T00:44:15.711Z,1016.29
2019-05-30T00:45:20.891Z,1016.23
2019-05-30T00:46:15.697Z,1016.31
2019-05-30T00:47:15.680Z,1016.27
2019-05-30T00:48:15.676Z,1016.24
2019-05-30T00:49:15.675Z,1016.22
2019-05-30T00:50:15.663Z,1016.23
2019-05-30T00:51:15.656Z,1016.22
2019-05-30T00:52:15.651Z,1016.18
2019-05-30T00:53:15.647Z,1016.18
2019-05-30T00:54:15.641Z,1016.17
2019-05-30T00:55:15.646Z,1016.18
2019-05-30T00:56:15.626Z,1016.19
2019-05-30T00:57:15.626Z,1016.14
2019-05-30T00:58:15.606Z,1016.17
2019-05-30T00:59:15.611Z,1016.16
2019-05-30T01:00:15.607Z,1016.16
2019-05-30T01:01:15.602Z,1016.18
2019-05-30T01:02:15.598Z,1016.17
2019-05-30T01:03:15.589Z,1016.18
2019-05-30T01:04:15.591Z,1016.17
2019-05-30T01:05:15.577Z,1016.18
2019-05-30T01:06:15.573Z,1016.15
2019-05-30T01:07:15.563Z,1016.21
2019-05-30T01:08:15.564Z,1016.19
2019-05-30T01:09:15.550Z,1016.17
2019-05-30T01:10:15.554Z,1016.19
2019-05-30T01:11:15.538Z,1016.16
2019-05-30T01:12:15.533Z,1016.18
2019-05-30T01:13:15.527Z,1016.20
2019-05-30T01:14:15.534Z,1016.18
2019-05-30T01:15:15.511Z,1016.18
2019-05-30T01:16:15.508Z,1016.22
2019-05-30T01:17:15.511Z,1016.16
2019-05-30T01:18:15.507Z,1016.18
2019-05-30T01:19:15.494Z,1016.16
2019-05-30T01:20:15.485Z,1016.16
2019-05-30T01:21:15.477Z,1016.16
2019-05-30T01:22:15.493Z,1016.20
2019-05-30T01:23:15.477Z,1016.17
2019-05-30T01:24:15.460Z,1016.14
2019-05-30T01:25:15.451Z,1016.16
2019-05-30T01:26:15.454Z,1016.16
2019-05-30T01:27:15.448Z,1016.14
2019-05-30T01:28:15.434Z,1016.12
2019-05-30T01:29:15.428Z,1016.16
2019-05-30T01:30:15.431Z,1016.16
2019-05-30T01:31:15.420Z,1016.11
2019-05-30T01:32:15.412Z,1016.11
2019-05-30T01:33:15.436Z,1016.11
2019-05-30T01:34:15.403Z,1016.17
2019-05-30T01:35:15.393Z,1016.14
2019-05-30T01:36:15.391Z,1016.19
2019-05-30T01:37:15.402Z,1016.19
2019-05-30T01:38:15.387Z,1016.18
2019-05-30T01:39:15.367Z,1016.14
2019-05-30T01:40:15.385Z,1016.19
2019-05-30T01:41:17.533Z,1016.14
2019-05-30T01:42:15.358Z,1016.14
2019-05-30T01:43:15.363Z,1016.17
2019-05-30T01:44:15.345Z,1016.18
2019-05-30T01:45:15.339Z,1016.19
2019-05-30T01:46:15.336Z,1016.15
2019-05-30T01:47:15.324Z,1016.16
2019-05-30T01:48:15.316Z,1016.15
2019-05-30T01:49:15.313Z,1016.12
2019-05-30T01:50:15.307Z,1016.12
2019-05-30T01:51:15.327Z,1016.12
2019-05-30T01:52:15.290Z,1016.07
2019-05-30T01:53:15.291Z,1016.13
2019-05-30T01:54:15.276Z,1016.10
2019-05-30T01:55:15.285Z,1016.10
2019-05-30T01:56:15.274Z,1016.11
2019-05-30T01:57:15.270Z,1016.04
2019-05-30T01:58:15.277Z,1016.06
2019-05-30T01:59:15.258Z,1016.07
2019-05-30T02:00:20.716Z,1016.08
2019-05-30T02:01:24.282Z,1016.09
2019-05-30T02:02:15.229Z,1016.09
2019-05-30T02:03:15.232Z,1016.05
2019-05-30T02:04:15.232Z,1016.07
2019-05-30T02:05:15.222Z,1016.09
2019-05-30T02:06:15.243Z,1016.09
2019-05-30T02:07:15.214Z,1016.09
2019-05-30T02:08:15.203Z,1016.07
2019-05-30T02:09:15.189Z,1016.08
2019-05-30T02:10:15.195Z,1016.07
2019-05-30T02:11:15.179Z,1016.04
2019-05-30T02:12:15.187Z,1016.09
2019-05-30T02:13:15.172Z,1016.08
2019-05-30T02:14:15.183Z,1016.08
2019-05-30T02:15:15.167Z,1016.03
2019-05-30T02:16:15.156Z,1016.08
2019-05-30T02:17:15.140Z,1016.07
2019-05-30T02:18:15.142Z,1016.09
2019-05-30T02:19:15.155Z,1016.08
2019-05-30T02:20:15.125Z,1016.05
2019-05-30T02:21:15.117Z,1016.07
2019-05-30T02:22:15.126Z,1016.06
2019-05-30T02:23:15.113Z,1016.06
2019-05-30T02:24:15.111Z,1016.07
2019-05-30T02:25:15.103Z,1016.03
2019-05-30T02:26:15.099Z,1016.06
2019-05-30T02:27:15.100Z,1016.06
2019-05-30T02:28:15.079Z,1016.06
2019-05-30T02:29:15.081Z,1016.07
2019-05-30T02:30:15.265Z,1016.04
2019-05-30T02:31:15.095Z,1016.03
2019-05-30T02:32:15.069Z,1016.12
2019-05-30T02:33:15.062Z,1016.07
2019-05-30T02:34:15.045Z,1016.06
2019-05-30T02:35:15.071Z,1016.06
2019-05-30T02:36:15.044Z,1016.10
2019-05-30T02:37:15.033Z,1016.08
2019-05-30T02:38:15.035Z,1016.15
2019-05-30T02:39:15.025Z,1016.12
2019-05-30T02:40:15.492Z,1016.12
2019-05-30T02:41:15.018Z,1016.12
2019-05-30T02:42:15.015Z,1016.11
2019-05-30T02:43:15.012Z,1016.15
2019-05-30T02:44:14.999Z,1016.13
2019-05-30T02:45:14.991Z,1016.14
2019-05-30T02:46:14.995Z,1016.14
2019-05-30T02:47:14.997Z,1016.11
2019-05-30T02:48:14.970Z,1016.15
2019-05-30T02:49:14.977Z,1016.17
2019-05-30T02:50:14.978Z,1016.16
2019-05-30T02:51:14.972Z,1016.14
2019-05-30T02:52:14.968Z,1016.16
2019-05-30T02:53:14.962Z,1016.17
2019-05-30T02:54:14.943Z,1016.16
2019-05-30T02:55:14.938Z,1016.15
2019-05-30T02:56:14.933Z,1016.20
2019-05-30T02:57:14.949Z,1016.17
2019-05-30T02:58:14.921Z,1016.18
2019-05-30T02:59:14.922Z,1016.17
2019-05-30T03:00:17.651Z,1016.15
2019-05-30T03:01:14.955Z,1016.16
2019-05-30T03:02:17.267Z,1016.12
2019-05-30T03:03:15.047Z,1016.09
2019-05-30T03:04:14.890Z,1016.12
2019-05-30T03:05:15.398Z,1016.16
2019-05-30T03:06:14.889Z,1016.18
2019-05-30T03:07:14.887Z,1016.17
2019-05-30T03:08:14.903Z,1016.14
2019-05-30T03:09:14.860Z,1016.17
2019-05-30T03:10:15.481Z,1016.15
2019-05-30T03:11:15.663Z,1016.17
2019-05-30T03:12:14.857Z,1016.17
2019-05-30T03:13:14.857Z,1016.16
2019-05-30T03:14:19.064Z,1016.16
2019-05-30T03:15:15.721Z,1016.20
2019-05-30T03:16:14.830Z,1016.19
2019-05-30T03:17:14.906Z,1016.18
2019-05-30T03:18:15.306Z,1016.19
2019-05-30T03:19:14.806Z,1016.22
2019-05-30T03:20:22.602Z,1016.20
2019-05-30T03:21:15.542Z,1016.17
2019-05-30T03:22:14.798Z,1016.22
2019-05-30T03:23:15.160Z,1016.22
2019-05-30T03:24:14.785Z,1016.23
2019-05-30T03:25:16.204Z,1016.23
2019-05-30T03:26:16.085Z,1016.22
2019-05-30T03:27:14.791Z,1016.21
2019-05-30T03:28:14.779Z,1016.23
2019-05-30T03:29:14.770Z,1016.26
2019-05-30T03:30:25.188Z,1016.26
2019-05-30T03:31:26.734Z,1016.28
2019-05-30T03:32:59.520Z,1016.26
2019-05-30T03:33:32.968Z,1016.30
2019-05-30T03:34:26.338Z,1016.32
2019-05-30T03:35:26.876Z,1016.33
2019-05-30T03:36:27.613Z,1016.31
2019-05-30T03:37:22.582Z,1016.33
2019-05-30T03:38:15.573Z,1016.36
2019-05-30T03:39:15.454Z,1016.34
2019-05-30T03:40:14.699Z,1016.34
2019-05-30T03:41:14.701Z,1016.30
2019-05-30T03:42:15.953Z,1016.34
2019-05-30T03:43:15.939Z,1016.36
2019-05-30T03:44:15.674Z,1016.39
2019-05-30T03:45:16.612Z,1016.36
2019-05-30T03:46:15.085Z,1016.38
2019-05-30T03:47:15.588Z,1016.35
2019-05-30T03:48:16.274Z,1016.37
2019-05-30T03:49:14.977Z,1016.40
2019-05-30T03:50:17.439Z,1016.37
2019-05-30T03:51:15.118Z,1016.41
2019-05-30T03:52:17.046Z,1016.39
2019-05-30T03:53:16.238Z,1016.41
2019-05-30T03:54:16.094Z,1016.39
2019-05-30T03:55:16.522Z,1016.40
2019-05-30T03:56:16.012Z,1016.42
2019-05-30T03:57:15.651Z,1016.43
2019-05-30T03:58:16.427Z,1016.41
2019-05-30T03:59:14.862Z,1016.42
2019-05-30T04:00:16.121Z,1016.45
2019-05-30T04:01:14.956Z,1016.45
2019-05-30T04:02:15.780Z,1016.41
2019-05-30T04:03:15.613Z,1016.47
2019-05-30T04:04:16.604Z,1016.45
2019-05-30T04:05:16.039Z,1016.45
2019-05-30T04:06:16.482Z,1016.48
2019-05-30T04:07:15.892Z,1016.50
2019-05-30T04:08:16.147Z,1016.52
2019-05-30T04:09:21.413Z,1016.54
2019-05-30T04:10:15.787Z,1016.57
2019-05-30T04:11:16.581Z,1016.53
2019-05-30T04:12:16.516Z,1016.56
2019-05-30T04:13:16.590Z,1016.53
2019-05-30T04:14:15.733Z,1016.55
2019-05-30T04:15:16.631Z,1016.59
2019-05-30T04:16:15.875Z,1016.56
2019-05-30T04:17:16.045Z,1016.59
2019-05-30T04:18:16.318Z,1016.55
2019-05-30T04:19:15.542Z,1016.53
2019-05-30T04:20:17.822Z,1016.54
2019-05-30T04:21:16.679Z,1016.56
2019-05-30T04:22:15.498Z,1016.60
2019-05-30T04:23:14.965Z,1016.61
2019-05-30T04:24:16.091Z,1016.62
2019-05-30T04:25:14.480Z,1016.63
2019-05-30T04:26:15.933Z,1016.61
2019-05-30T04:27:16.109Z,1016.64
2019-05-30T04:28:16.093Z,1016.62
2019-05-30T04:29:16.275Z,1016.59
2019-05-30T04:30:16.180Z,1016.64
2019-05-30T04:31:14.617Z,1016.66
2019-05-30T04:32:14.500Z,1016.68
2019-05-30T04:33:26.444Z,1016.67
2019-05-30T04:34:14.869Z,1016.69
2019-05-30T04:35:14.718Z,1016.71
2019-05-30T04:36:14.612Z,1016.70
2019-05-30T04:37:14.909Z,1016.74
2019-05-30T04:38:14.740Z,1016.72
2019-05-30T04:39:15.140Z,1016.74
2019-05-30T04:40:15.439Z,1016.79
2019-05-30T04:41:15.953Z,1016.79
2019-05-30T04:42:16.238Z,1016.80
2019-05-30T04:43:15.513Z,1016.78
2019-05-30T04:44:16.070Z,1016.81
2019-05-30T04:45:15.981Z,1016.77
2019-05-30T04:46:16.450Z,1016.76
2019-05-30T04:47:15.984Z,1016.74
2019-05-30T04:48:15.886Z,1016.78
2019-05-30T04:49:14.956Z,1016.72
2019-05-30T04:50:14.812Z,1016.71
2019-05-30T04:51:14.949Z,1016.68
2019-05-30T04:52:19.859Z,1016.70
2019-05-30T04:53:16.194Z,1016.73
2019-05-30T04:54:15.129Z,1016.75
2019-05-30T04:55:16.031Z,1016.75
2019-05-30T04:56:14.712Z,1016.76
2019-05-30T04:57:14.912Z,1016.78
2019-05-30T04:58:15.427Z,1016.84
2019-05-30T04:59:15.253Z,1016.84
2019-05-30T05:00:15.219Z,1016.81
2019-05-30T05:01:15.426Z,1016.85
2019-05-30T05:02:16.381Z,1016.76
2019-05-30T05:03:15.491Z,1016.77
2019-05-30T05:04:15.477Z,1016.78
2019-05-30T05:05:19.986Z,1016.79
2019-05-30T05:06:15.687Z,1016.79
2019-05-30T05:07:15.566Z,1016.81
2019-05-30T05:08:15.718Z,1016.79
2019-05-30T05:09:15.847Z,1016.82
2019-05-30T05:10:14.255Z,1016.79
2019-05-30T05:11:17.253Z,1016.78
2019-05-30T05:12:14.258Z,1016.81
2019-05-30T05:13:14.241Z,1016.86
2019-05-30T05:14:14.372Z,1016.88
2019-05-30T05:15:14.408Z,1016.89
2019-05-30T05:16:25.918Z,1016.92
2019-05-30T05:17:14.683Z,1016.88
2019-05-30T05:18:14.950Z,1016.86
2019-05-30T05:19:14.912Z,1016.89
2019-05-30T05:20:15.240Z,1016.91
2019-05-30T05:21:14.704Z,1016.91
2019-05-30T05:22:14.826Z,1016.95
2019-05-30T05:23:15.079Z,1016.98
2019-05-30T05:24:15.328Z,1017.01
2019-05-30T05:25:15.321Z,1017.03
2019-05-30T05:26:15.375Z,1017.04
2019-05-30T05:27:15.446Z,1017.07
2019-05-30T05:28:14.187Z,1017.06
2019-05-30T05:29:14.181Z,1017.07
2019-05-30T05:30:14.174Z,1017.08
2019-05-30T05:31:14.484Z,1017.02
2019-05-30T05:32:14.174Z,1017.06
2019-05-30T05:33:14.540Z,1017.01
2019-05-30T05:34:14.456Z,1016.98
2019-05-30T05:35:14.791Z,1016.98
2019-05-30T05:36:14.847Z,1016.98
2019-05-30T05:37:14.910Z,1016.99
2019-05-30T05:38:14.140Z,1017.08
2019-05-30T05:39:14.136Z,1017.05
2019-05-30T05:40:14.150Z,1017.02
2019-05-30T05:41:14.119Z,1017.02
2019-05-30T05:42:14.118Z,1017.01
2019-05-30T05:43:14.121Z,1017.06
2019-05-30T05:44:14.104Z,1017.08
2019-05-30T05:45:14.127Z,1017.10
2019-05-30T05:46:14.099Z,1017.12
2019-05-30T05:47:14.106Z,1017.03
2019-05-30T05:48:14.104Z,1017.08
2019-05-30T05:49:14.088Z,1017.07
2019-05-30T05:50:14.087Z,1017.05
2019-05-30T05:51:14.090Z,1017.07
2019-05-30T05:52:14.083Z,1017.08
2019-05-30T05:53:14.088Z,1017.14
2019-05-30T05:54:14.082Z,1017.12
2019-05-30T05:55:14.068Z,1017.07
2019-05-30T05:56:14.060Z,1017.06
2019-05-30T05:57:14.058Z,1017.08
2019-05-30T05:58:14.052Z,1017.07
2019-05-30T05:59:14.069Z,1017.03
2019-05-30T06:00:14.049Z,1017.09
2019-05-30T06:01:14.042Z,1017.12
2019-05-30T06:02:14.185Z,1017.14
2019-05-30T06:03:14.033Z,1017.13
2019-05-30T06:04:14.044Z,1017.12
2019-05-30T06:05:14.034Z,1017.09
2019-05-30T06:06:14.039Z,1017.11
2019-05-30T06:07:14.033Z,1017.11
2019-05-30T06:08:14.017Z,1017.12
2019-05-30T06:09:14.014Z,1017.16
2019-05-30T06:10:14.006Z,1017.14
2019-05-30T06:11:14.002Z,1017.14
2019-05-30T06:12:14.002Z,1017.18
2019-05-30T06:13:13.987Z,1017.14
2019-05-30T06:14:13.990Z,1017.15
2019-05-30T06:15:14.009Z,1017.20
2019-05-30T06:16:13.991Z,1017.23
2019-05-30T06:17:13.982Z,1017.25
2019-05-30T06:18:13.979Z,1017.22
2019-05-30T06:19:13.975Z,1017.28
2019-05-30T06:20:13.968Z,1017.23
2019-05-30T06:21:13.965Z,1017.25
2019-05-30T06:22:13.970Z,1017.23
2019-05-30T06:23:13.955Z,1017.24
2019-05-30T06:24:13.968Z,1017.26
2019-05-30T06:25:13.955Z,1017.26
2019-05-30T06:26:13.948Z,1017.31
2019-05-30T06:27:13.940Z,1017.27
2019-05-30T06:28:13.939Z,1017.25
2019-05-30T06:29:13.935Z,1017.25
2019-05-30T06:30:13.937Z,1017.27
2019-05-30T06:31:13.927Z,1017.25
2019-05-30T06:32:13.931Z,1017.23
2019-05-30T06:33:13.937Z,1017.24
2019-05-30T06:34:28.280Z,1017.24
2019-05-30T06:35:13.910Z,1017.25
2019-05-30T06:36:13.905Z,1017.26
2019-05-30T06:37:13.897Z,1017.27
2019-05-30T06:38:13.900Z,1017.25
2019-05-30T06:39:13.900Z,1017.26
2019-05-30T06:40:13.899Z,1017.23
2019-05-30T06:41:13.894Z,1017.29
2019-05-30T06:42:13.893Z,1017.26
2019-05-30T06:43:13.877Z,1017.29
2019-05-30T06:44:13.901Z,1017.33
2019-05-30T06:45:13.884Z,1017.33
2019-05-30T06:46:13.875Z,1017.32
2019-05-30T06:47:13.874Z,1017.28
2019-05-30T06:48:13.869Z,1017.30
2019-05-30T06:49:15.044Z,1017.30
2019-05-30T06:50:13.973Z,1017.33
2019-05-30T06:51:14.684Z,1017.31
2019-05-30T06:52:13.859Z,1017.30
2019-05-30T06:53:13.853Z,1017.35
2019-05-30T06:54:13.851Z,1017.35
2019-05-30T06:55:13.852Z,1017.36
2019-05-30T06:56:13.840Z,1017.38
2019-05-30T06:57:13.849Z,1017.36
2019-05-30T06:58:13.834Z,1017.36
2019-05-30T06:59:13.838Z,1017.40
2019-05-30T07:00:13.827Z,1017.38
2019-05-30T07:01:13.835Z,1017.37
2019-05-30T07:02:13.843Z,1017.40
2019-05-30T07:03:13.876Z,1017.40
2019-05-30T07:04:14.295Z,1017.39
2019-05-30T07:05:14.444Z,1017.41
2019-05-30T07:06:14.296Z,1017.40
2019-05-30T07:07:13.848Z,1017.40
2019-05-30T07:08:13.819Z,1017.42
2019-05-30T07:09:13.818Z,1017.41
2019-05-30T07:10:13.810Z,1017.41
2019-05-30T07:11:13.798Z,1017.38
2019-05-30T07:12:13.789Z,1017.40
2019-05-30T07:13:13.789Z,1017.35
2019-05-30T07:14:13.807Z,1017.42
2019-05-30T07:15:13.779Z,1017.42
2019-05-30T07:16:13.791Z,1017.42
2019-05-30T07:17:13.780Z,1017.41
2019-05-30T07:18:13.780Z,1017.41
2019-05-30T07:19:13.769Z,1017.43
2019-05-30T07:20:13.799Z,1017.43
2019-05-30T07:21:13.781Z,1017.43
2019-05-30T07:22:13.770Z,1017.42
2019-05-30T07:23:13.805Z,1017.43
2019-05-30T07:24:14.634Z,1017.42
2019-05-30T07:25:19.880Z,1017.42
2019-05-30T07:26:23.816Z,1017.40
2019-05-30T07:27:17.714Z,1017.43
2019-05-30T07:28:17.745Z,1017.42
2019-05-30T07:29:13.797Z,1017.43
2019-05-30T07:30:13.757Z,1017.44
2019-05-30T07:31:13.743Z,1017.43
2019-05-30T07:32:19.976Z,1017.40
2019-05-30T07:33:17.521Z,1017.40
2019-05-30T07:34:13.733Z,1017.47
2019-05-30T07:35:28.021Z,1017.46
2019-05-30T07:36:19.822Z,1017.47
2019-05-30T07:37:13.731Z,1017.46
2019-05-30T07:38:13.742Z,1017.47
2019-05-30T07:39:13.724Z,1017.46
2019-05-30T07:40:13.720Z,1017.50
2019-05-30T07:41:13.728Z,1017.49
2019-05-30T07:42:13.706Z,1017.50
2019-05-30T07:43:13.717Z,1017.48
2019-05-30T07:44:20.433Z,1017.53
2019-05-30T07:45:13.727Z,1017.51
2019-05-30T07:46:18.511Z,1017.48
2019-05-30T07:47:13.700Z,1017.45
2019-05-30T07:48:13.729Z,1017.45
2019-05-30T07:49:19.879Z,1017.49
2019-05-30T07:50:13.699Z,1017.47
2019-05-30T07:51:13.720Z,1017.52
2019-05-30T07:52:13.693Z,1017.43
2019-05-30T07:53:13.697Z,1017.46
2019-05-30T07:54:13.706Z,1017.45
2019-05-30T07:55:13.703Z,1017.47
2019-05-30T07:56:13.685Z,1017.47
2019-05-30T07:57:13.719Z,1017.47
2019-05-30T07:58:13.689Z,1017.47
2019-05-30T07:59:13.687Z,1017.46
2019-05-30T08:00:13.681Z,1017.47
2019-05-30T08:01:21.497Z,1017.50
2019-05-30T08:02:19.880Z,1017.51
2019-05-30T08:03:13.676Z,1017.44
2019-05-30T08:04:14.623Z,1017.50
2019-05-30T08:05:24.337Z,1017.50
2019-05-30T08:06:39.201Z,1017.47
2019-05-30T08:07:22.648Z,1017.48
2019-05-30T08:08:22.820Z,1017.48
2019-05-30T08:09:19.021Z,1017.48
2019-05-30T08:10:13.670Z,1017.51
2019-05-30T08:11:13.675Z,1017.53
2019-05-30T08:12:13.660Z,1017.51
2019-05-30T08:13:13.669Z,1017.51
2019-05-30T08:14:13.689Z,1017.51
2019-05-30T08:15:13.682Z,1017.54
2019-05-30T08:16:13.673Z,1017.52
2019-05-30T08:17:13.658Z,1017.54
2019-05-30T08:18:13.652Z,1017.50
2019-05-30T08:19:13.657Z,1017.54
2019-05-30T08:20:13.658Z,1017.50
2019-05-30T08:21:13.652Z,1017.56
2019-05-30T08:22:13.668Z,1017.56
2019-05-30T08:23:13.655Z,1017.56
2019-05-30T08:24:13.648Z,1017.54
2019-05-30T08:25:13.652Z,1017.55
2019-05-30T08:26:13.656Z,1017.54
2019-05-30T08:27:13.645Z,1017.53
2019-05-30T08:28:13.655Z,1017.53
2019-05-30T08:29:14.630Z,1017.48
2019-05-30T08:30:13.664Z,1017.51
2019-05-30T08:31:15.434Z,1017.50
2019-05-30T08:32:13.645Z,1017.54
2019-05-30T08:33:13.645Z,1017.51
2019-05-30T08:34:13.644Z,1017.46
2019-05-30T08:35:13.645Z,1017.48
2019-05-30T08:36:13.645Z,1017.49
2019-05-30T08:37:13.641Z,1017.48
2019-05-30T08:38:13.651Z,1017.48
2019-05-30T08:39:13.671Z,1017.46
2019-05-30T08:40:13.638Z,1017.47
2019-05-30T08:41:13.643Z,1017.47
2019-05-30T08:42:13.643Z,1017.46
2019-05-30T08:43:13.640Z,1017.48
2019-05-30T08:44:13.647Z,1017.48
2019-05-30T08:45:13.632Z,1017.47
2019-05-30T08:46:13.637Z,1017.46
2019-05-30T08:47:13.636Z,1017.49
2019-05-30T08:48:13.629Z,1017.48
2019-05-30T08:49:13.652Z,1017.49
2019-05-30T08:50:13.645Z,1017.51
2019-05-30T08:51:13.651Z,1017.51
2019-05-30T08:52:13.643Z,1017.48
2019-05-30T08:53:13.635Z,1017.47
2019-05-30T08:54:14.139Z,1017.49
2019-05-30T08:55:13.632Z,1017.48
2019-05-30T08:56:13.636Z,1017.47
2019-05-30T08:57:13.624Z,1017.51
2019-05-30T08:58:13.629Z,1017.49
2019-05-30T08:59:13.636Z,1017.51
2019-05-30T09:00:13.636Z,1017.48
2019-05-30T09:01:13.632Z,1017.48
2019-05-30T09:02:13.626Z,1017.47
2019-05-30T09:03:13.631Z,1017.46
2019-05-30T09:04:13.628Z,1017.46
2019-05-30T09:05:13.637Z,1017.46
2019-05-30T09:06:13.642Z,1017.38
2019-05-30T09:07:13.624Z,1017.40
2019-05-30T09:08:13.626Z,1017.39
2019-05-30T09:09:13.633Z,1017.44
2019-05-30T09:10:13.627Z,1017.46
2019-05-30T09:11:13.634Z,1017.40
2019-05-30T09:12:13.633Z,1017.41
2019-05-30T09:13:14.532Z,1017.43
2019-05-30T09:14:13.795Z,1017.36
2019-05-30T09:15:13.632Z,1017.38
2019-05-30T09:16:13.794Z,1017.31
2019-05-30T09:17:13.650Z,1017.35
2019-05-30T09:18:13.631Z,1017.33
2019-05-30T09:19:13.687Z,1017.34
2019-05-30T09:20:13.803Z,1017.32
2019-05-30T09:21:13.639Z,1017.28
2019-05-30T09:22:13.646Z,1017.29
2019-05-30T09:23:13.641Z,1017.26
2019-05-30T09:24:13.641Z,1017.29
2019-05-30T09:25:13.642Z,1017.28
2019-05-30T09:26:13.648Z,1017.22
2019-05-30T09:27:13.647Z,1017.24
2019-05-30T09:28:13.647Z,1017.24
2019-05-30T09:29:13.765Z,1017.23
2019-05-30T09:30:13.652Z,1017.27
2019-05-30T09:31:13.660Z,1017.24
2019-05-30T09:32:13.649Z,1017.24
2019-05-30T09:33:13.681Z,1017.27
2019-05-30T09:34:13.655Z,1017.22
2019-05-30T09:35:13.664Z,1017.28
2019-05-30T09:36:14.076Z,1017.27
2019-05-30T09:37:13.657Z,1017.28
2019-05-30T09:38:13.810Z,1017.32
2019-05-30T09:39:13.864Z,1017.34
2019-05-30T09:40:13.668Z,1017.31
2019-05-30T09:41:13.673Z,1017.34
2019-05-30T09:42:14.241Z,1017.35
2019-05-30T09:43:13.671Z,1017.35
2019-05-30T09:44:13.686Z,1017.33
2019-05-30T09:45:15.654Z,1017.34
2019-05-30T09:46:13.683Z,1017.35
2019-05-30T09:47:13.679Z,1017.34
2019-05-30T09:48:13.674Z,1017.33
2019-05-30T09:49:13.667Z,1017.32
2019-05-30T09:50:13.663Z,1017.35
2019-05-30T09:51:13.670Z,1017.34
2019-05-30T09:52:13.669Z,1017.37
2019-05-30T09:53:13.674Z,1017.39
2019-05-30T09:54:13.661Z,1017.45
2019-05-30T09:55:13.674Z,1017.38
2019-05-30T09:56:13.675Z,1017.40
2019-05-30T09:57:13.688Z,1017.34
2019-05-30T09:58:19.106Z,1017.35
2019-05-30T09:59:13.678Z,1017.38
2019-05-30T10:00:14.406Z,1017.39
2019-05-30T10:01:13.966Z,1017.33
2019-05-30T10:02:13.674Z,1017.36
2019-05-30T10:03:13.680Z,1017.37
2019-05-30T10:04:13.673Z,1017.33
2019-05-30T10:05:13.674Z,1017.35
2019-05-30T10:06:28.528Z,1017.36
2019-05-30T10:07:13.675Z,1017.37
2019-05-30T10:08:13.670Z,1017.37
2019-05-30T10:09:13.672Z,1017.38
2019-05-30T10:10:13.670Z,1017.35
2019-05-30T10:11:16.097Z,1017.33
2019-05-30T10:12:13.668Z,1017.32
2019-05-30T10:13:13.669Z,1017.39
2019-05-30T10:14:13.665Z,1017.36
2019-05-30T10:15:13.675Z,1017.35
2019-05-30T10:16:13.671Z,1017.36
2019-05-30T10:17:13.691Z,1017.38
2019-05-30T10:18:13.668Z,1017.40
2019-05-30T10:19:13.686Z,1017.34
2019-05-30T10:20:13.671Z,1017.34
2019-05-30T10:21:13.663Z,1017.33
2019-05-30T10:22:13.666Z,1017.37
2019-05-30T10:23:13.666Z,1017.33
2019-05-30T10:24:13.668Z,1017.36
2019-05-30T10:25:13.660Z,1017.32
2019-05-30T10:26:13.659Z,1017.36
2019-05-30T10:27:13.667Z,1017.35
2019-05-30T10:28:13.667Z,1017.37
2019-05-30T10:29:13.666Z,1017.37
2019-05-30T10:30:13.669Z,1017.38
2019-05-30T10:31:13.660Z,1017.36
2019-05-30T10:32:13.656Z,1017.39
2019-05-30T10:33:13.665Z,1017.38
2019-05-30T10:34:13.662Z,1017.36
2019-05-30T10:35:13.659Z,1017.34
2019-05-30T10:36:14.814Z,1017.35
2019-05-30T10:37:13.655Z,1017.34
2019-05-30T10:38:13.655Z,1017.42
2019-05-30T10:39:13.656Z,1017.39
2019-05-30T10:40:13.654Z,1017.42
2019-05-30T10:41:13.658Z,1017.43
2019-05-30T10:42:13.650Z,1017.44
2019-05-30T10:43:13.654Z,1017.43
2019-05-30T10:44:13.658Z,1017.42
2019-05-30T10:45:13.652Z,1017.43
2019-05-30T10:46:13.665Z,1017.39
2019-05-30T10:47:13.656Z,1017.39
2019-05-30T10:48:13.655Z,1017.42
2019-05-30T10:49:13.655Z,1017.38
2019-05-30T10:50:13.650Z,1017.40
2019-05-30T10:51:13.649Z,1017.37
2019-05-30T10:52:13.647Z,1017.37
2019-05-30T10:53:13.647Z,1017.43
2019-05-30T10:54:13.646Z,1017.43
2019-05-30T10:55:13.648Z,1017.41
2019-05-30T10:56:13.646Z,1017.40
2019-05-30T10:57:13.644Z,1017.37
2019-05-30T10:58:13.643Z,1017.40
2019-05-30T10:59:13.645Z,1017.40
2019-05-30T11:00:13.645Z,1017.40
2019-05-30T11:01:13.649Z,1017.42
2019-05-30T11:02:13.643Z,1017.38
2019-05-30T11:03:13.638Z,1017.38
2019-05-30T11:04:13.637Z,1017.38
2019-05-30T11:05:13.638Z,1017.35
2019-05-30T11:06:13.668Z,1017.36
2019-05-30T11:07:13.637Z,1017.36
2019-05-30T11:08:13.632Z,1017.34
2019-05-30T11:09:13.637Z,1017.39
2019-05-30T11:10:13.632Z,1017.34
2019-05-30T11:11:14.491Z,1017.35
2019-05-30T11:12:13.631Z,1017.36
2019-05-30T11:13:13.658Z,1017.44
2019-05-30T11:14:13.632Z,1017.46
2019-05-30T11:15:14.495Z,1017.51
2019-05-30T11:16:13.632Z,1017.53
2019-05-30T11:17:13.626Z,1017.53
2019-05-30T11:18:13.719Z,1017.53
2019-05-30T11:19:13.625Z,1017.52
2019-05-30T11:20:13.645Z,1017.48
2019-05-30T11:21:13.624Z,1017.52
2019-05-30T11:22:13.652Z,1017.53
2019-05-30T11:23:13.628Z,1017.56
2019-05-30T11:24:13.616Z,1017.57
2019-05-30T11:25:13.620Z,1017.52
2019-05-30T11:26:13.616Z,1017.54
2019-05-30T11:27:13.616Z,1017.52
2019-05-30T11:28:13.616Z,1017.52
2019-05-30T11:29:13.615Z,1017.51
2019-05-30T11:30:13.614Z,1017.51
2019-05-30T11:31:16.549Z,1017.53
2019-05-30T11:32:13.612Z,1017.48
2019-05-30T11:33:13.625Z,1017.50
2019-05-30T11:34:13.682Z,1017.48
2019-05-30T11:35:14.441Z,1017.48
2019-05-30T11:36:13.608Z,1017.45
2019-05-30T11:37:18.700Z,1017.45
2019-05-30T11:38:13.615Z,1017.44
2019-05-30T11:39:16.381Z,1017.44
2019-05-30T11:40:13.605Z,1017.43
2019-05-30T11:41:13.607Z,1017.42
2019-05-30T11:42:13.632Z,1017.44
2019-05-30T11:43:15.386Z,1017.48
2019-05-30T11:44:15.530Z,1017.49
2019-05-30T11:45:14.297Z,1017.49
2019-05-30T11:46:14.747Z,1017.52
2019-05-30T11:47:13.605Z,1017.46
2019-05-30T11:48:13.752Z,1017.46
2019-05-30T11:49:14.464Z,1017.46
2019-05-30T11:50:13.605Z,1017.48
2019-05-30T11:51:13.847Z,1017.45
2019-05-30T11:52:13.605Z,1017.50
2019-05-30T11:53:13.607Z,1017.49
2019-05-30T11:54:13.604Z,1017.52
2019-05-30T11:55:13.640Z,1017.49
2019-05-30T11:56:15.973Z,1017.52
2019-05-30T11:57:13.603Z,1017.54
2019-05-30T11:58:13.606Z,1017.56
2019-05-30T11:59:14.888Z,1017.54
2019-05-30T12:00:13.613Z,1017.51
2019-05-30T12:01:15.351Z,1017.51
2019-05-30T12:02:14.611Z,1017.48
2019-05-30T12:03:13.811Z,1017.52
2019-05-30T12:04:13.608Z,1017.53
2019-05-30T12:05:14.720Z,1017.52